PORTS® Data Listing: 8720218 Mayport (Bar Pilots Dock), FL

CO-OPS RAW PORTS DATA

************************      PRELIMINARY DATA      ************************** 

     THIS RAW DATA HAS NOT BEEN SUBJECT TO THE NATIONAL OCEAN SERVICE'S        
     QUALITY CONTROL OR QUALITY ASSURANCE PROCEDURES AND DOES NOT MEET         
     THE CRITERIA AND STANDARDS OF OFFICIAL NATIONAL OCEAN SERVICE             
     DATA.  IT IS RELEASED FOR LIMITED PUBLIC USE AS PRELIMINARY DATA TO       
     BE USED ONLY WITH APPROPRIATE CAUTION.                                    

************************      PRELIMINARY DATA      ************************** 


       CD   -   Calendar date
       T    -   Time
       TZ   -   Timezone
       PW   -   Predicted water level (feet above MLLW)
       OW   -   Observed water level (feet above MLLW)
       WS   -   Wind speed (knots)
       WD   -   Wind direction (degrees true)
       WG   -   Wind gust (knots)
       AT   -   Air temperature (degrees farenheit)
       WT   -   Water temperature (degrees farenheit)
       AP   -   Air pressure (millibars)
       SA   -   Salinty (PSU - Practical Salinity Units)
       SG   -   Specific gravity
       RH   -   Relative humidity
       AG   -   Air gap (feet)
       VI   -   Visibility (nautical miles)

       ** NOTE **
       A variable that has its data fields filled with "9"s, indicates that
       data was not collected for that sample period.
       **********


STATION NAME: Mayport Bar Pilots Dock (8720218)
****************************************************************************************************
    CD       T    TZ    PW     OW    WS   WD   WG    AT    WT    AP    SA    SG     RH    AG   VI
****************************************************************************************************
2019/12/09 23:12 EST    0.51   0.75    2  209    3  65.8  64.2 1020.1  8.5  1.006 -99.9 -99.99 -9.99
2019/12/09 23:18 EST    0.45   0.66    4  192    4  65.7  64.2 1020.1  8.5  1.006 -99.9 -99.99 -9.99
2019/12/09 23:24 EST    0.39   0.59    3  200    4  65.5  64.2 1020.1  8.4  1.006 -99.9 -99.99 -9.99
2019/12/09 23:30 EST    0.35   0.55    4  185    5  65.5  64.2 1020.0  8.4  1.006 -99.9 -99.99 -9.99
2019/12/09 23:36 EST    0.30   0.49    5  184    6  65.3  64.2 1020.0  8.4  1.006 -99.9 -99.99 -9.99
2019/12/09 23:42 EST    0.26   0.46    4  163    5  64.8  64.2 1019.9  8.4  1.006 -99.9 -99.99 -9.99
2019/12/09 23:48 EST    0.23   0.44    4  172    5  64.6  64.2 1019.9  8.3  1.006 -99.9 -99.99 -9.99
2019/12/09 23:54 EST    0.20   0.40    3  193    4  64.4  64.2 1019.9  8.3  1.006 -99.9 -99.99 -9.99
2019/12/10 00:00 EST    0.17   0.37    4  185    5  64.2  64.2 1019.9  8.3  1.006 -99.9 -99.99 -9.99
2019/12/10 00:06 EST    0.16   0.35    4  183    5  64.2  64.2 1019.7  8.3  1.006 -99.9 -99.99 -9.99
2019/12/10 00:12 EST    0.14   0.32    3  196    4  64.2  64.2 1019.7  8.3  1.006 -99.9 -99.99 -9.99
2019/12/10 00:18 EST    0.14   0.31    4  195    5  64.4  64.2 1019.7  8.2  1.006 -99.9 -99.99 -9.99
2019/12/10 00:24 EST    0.14   0.31    4  191    5  64.4  64.2 1019.6  8.2  1.006 -99.9 -99.99 -9.99
2019/12/10 00:30 EST    0.14   0.31    4  186    6  64.4  64.2 1019.6  8.2  1.006 -99.9 -99.99 -9.99
2019/12/10 00:36 EST    0.15   0.31    4  190    5  64.2  64.2 1019.6  8.2  1.006 -99.9 -99.99 -9.99
2019/12/10 00:42 EST    0.17   0.31    3  209    4  64.2  64.2 1019.6  8.1  1.006 -99.9 -99.99 -9.99
2019/12/10 00:48 EST    0.19   0.36    3  217    4  64.2  64.2 1019.6  8.1  1.006 -99.9 -99.99 -9.99
2019/12/10 00:54 EST    0.22   0.41    3  209    4  64.0  64.2 1019.6  8.1  1.006 -99.9 -99.99 -9.99
2019/12/10 01:00 EST    0.26   0.43    4  193    5  64.0  64.2 1019.6  8.1  1.006 -99.9 -99.99 -9.99
2019/12/10 01:06 EST    0.30   0.44    4  185    6  64.2  64.2 1019.6  8.0  1.006 -99.9 -99.99 -9.99
2019/12/10 01:12 EST    0.35   0.45    4  193    5  64.2  64.2 1019.6  8.0  1.006 -99.9 -99.99 -9.99
2019/12/10 01:18 EST    0.40   0.50    3  207    5  64.2  64.2 1019.6  8.0  1.006 -99.9 -99.99 -9.99
2019/12/10 01:24 EST    0.46   0.59    3  203    4  64.0  64.2 1019.6  8.0  1.006 -99.9 -99.99 -9.99
2019/12/10 01:30 EST    0.53   0.68    3  190    4  63.9  64.2 1019.6  8.0  1.006 -99.9 -99.99 -9.99
2019/12/10 01:36 EST    0.60   0.76    2  206    4  63.9  64.2 1019.7  7.9  1.006 -99.9 -99.99 -9.99
2019/12/10 01:42 EST    0.67   0.82    3  197    4  63.7  64.2 1019.6  7.9  1.006 -99.9 -99.99 -9.99
2019/12/10 01:48 EST    0.76   0.89    4  188    6  63.9  64.2 1019.6  7.9  1.006 -99.9 -99.99 -9.99
2019/12/10 01:54 EST    0.84   0.97    4  190    6  64.2  64.2 1019.6  7.9  1.006 -99.9 -99.99 -9.99
2019/12/10 02:00 EST    0.93   1.05    3  201    5  64.0  64.2 1019.6  7.9  1.006 -99.9 -99.99 -9.99
2019/12/10 02:06 EST    1.03   1.14    3  201    5  64.0  64.2 1019.6  7.9  1.006 -99.9 -99.99 -9.99
2019/12/10 02:12 EST    1.12   1.25    3  210    5  63.9  64.2 1019.6  7.9  1.006 -99.9 -99.99 -9.99
2019/12/10 02:18 EST    1.22   1.38    2  210    4  63.7  64.2 1019.5  7.8  1.005 -99.9 -99.99 -9.99
2019/12/10 02:24 EST    1.33   1.51    3  216    4  63.7  64.2 1019.5  7.8  1.005 -99.9 -99.99 -9.99
2019/12/10 02:30 EST    1.44   1.62    3  214    4  63.7  64.2 1019.5  7.8  1.005 -99.9 -99.99 -9.99
2019/12/10 02:36 EST    1.54   1.72    4  210    4  63.7  64.2 1019.5  7.8  1.005 -99.9 -99.99 -9.99
2019/12/10 02:42 EST    1.65   1.82    4  207    5  63.9  64.2 1019.5  7.8  1.005 -99.9 -99.99 -9.99
2019/12/10 02:48 EST    1.77   1.95    4  216    6  63.7  64.2 1019.5  7.8  1.005 -99.9 -99.99 -9.99
2019/12/10 02:54 EST    1.88   2.09    4  217    5  63.9  64.2 1019.5  7.8  1.005 -99.9 -99.99 -9.99
2019/12/10 03:00 EST    1.99   2.20    4  220    5  63.9  64.2 1019.5  7.8  1.005 -99.9 -99.99 -9.99
2019/12/10 03:06 EST    2.11   2.31    4  217    5  63.7  64.2 1019.5  7.8  1.005 -99.9 -99.99 -9.99
2019/12/10 03:12 EST    2.22   2.46    3  216    4  63.9  64.2 1019.5  7.8  1.005 -99.9 -99.99 -9.99
2019/12/10 03:18 EST    2.34   2.60    3  216    4  63.9  64.2 1019.5  7.8  1.005 -99.9 -99.99 -9.99
2019/12/10 03:24 EST    2.45   2.73    3  215    4  63.9  64.2 1019.5  7.8  1.005 -99.9 -99.99 -9.99
2019/12/10 03:30 EST    2.56   2.83    4  203    5  63.9  64.2 1019.4  7.7  1.005 -99.9 -99.99 -9.99
2019/12/10 03:36 EST    2.68   2.91    4  204    5  63.9  64.2 1019.4  7.8  1.005 -99.9 -99.99 -9.99
2019/12/10 03:42 EST    2.79   3.05    4  205    5  63.9  64.2 1019.4  7.7  1.005 -99.9 -99.99 -9.99
2019/12/10 03:48 EST    2.90   3.19    4  212    5  63.9  64.2 1019.4  7.7  1.005 -99.9 -99.99 -9.99
2019/12/10 03:54 EST    3.01   3.30    4  212    5  63.9  64.2 1019.4  7.8  1.005 -99.9 -99.99 -9.99
2019/12/10 04:00 EST    3.12   3.40    4  219    5  63.9  64.2 1019.3  7.7  1.005 -99.9 -99.99 -9.99
2019/12/10 04:06 EST    3.22   3.48    3  222    4  63.5  64.2 1019.4  7.8  1.005 -99.9 -99.99 -9.99
2019/12/10 04:12 EST    3.33   3.58    3  216    4  63.7  64.2 1019.3  7.8  1.005 -99.9 -99.99 -9.99
2019/12/10 04:18 EST    3.43   3.68    4  211    4  63.7  64.2 1019.4  7.8  1.005 -99.9 -99.99 -9.99
2019/12/10 04:24 EST    3.53   3.79    3  205    5  63.9  64.2 1019.4  7.8  1.005 -99.9 -99.99 -9.99
2019/12/10 04:30 EST    3.63   3.89    4  206    5  63.9  64.2 1019.4  7.8  1.005 -99.9 -99.99 -9.99
2019/12/10 04:36 EST    3.73   3.96    3  208    5  63.9  64.2 1019.4  7.8  1.005 -99.9 -99.99 -9.99
2019/12/10 04:42 EST    3.82   4.03    3  210    5  63.9  64.2 1019.4  7.9  1.006 -99.9 -99.99 -9.99
2019/12/10 04:48 EST    3.91   4.10    4  208    4  63.9  64.2 1019.3  7.9  1.006 -99.9 -99.99 -9.99
2019/12/10 04:54 EST    4.00   4.21    4  205    5  63.9  64.2 1019.3  8.0  1.006 -99.9 -99.99 -9.99
2019/12/10 05:00 EST    4.09   4.31    5  194    5  63.5  64.2 1019.4  8.0  1.006 -99.9 -99.99 -9.99
2019/12/10 05:06 EST    4.17   4.34    4  194    5  63.3  64.2 1019.4  8.0  1.006 -99.9 -99.99 -9.99
2019/12/10 05:12 EST    4.25   4.42    4  165    5  63.1  64.2 1019.5  8.1  1.006 -99.9 -99.99 -9.99
2019/12/10 05:18 EST    4.33   4.49    4  162    7  62.8  64.2 1019.5  8.2  1.006 -99.9 -99.99 -9.99
2019/12/10 05:24 EST    4.40   4.56    5  163    7  62.8  64.2 1019.5  8.3  1.006 -99.9 -99.99 -9.99
2019/12/10 05:30 EST    4.47   4.62    5  174    7  62.6  64.2 1019.5  8.4  1.006 -99.9 -99.99 -9.99
2019/12/10 05:36 EST    4.54   4.69    5  164    7  62.4  64.4 1019.5  8.4  1.006 -99.9 -99.99 -9.99
2019/12/10 05:42 EST    4.60   4.73    4  174    7  62.6  64.4 1019.5  8.5  1.006 -99.9 -99.99 -9.99
2019/12/10 05:48 EST    4.66   4.80    3  174    7  62.6  64.4 1019.6  8.5  1.006 -99.9 -99.99 -9.99
2019/12/10 05:54 EST    4.72   4.87    2  218    5  62.8  64.4 1019.6  8.6  1.006 -99.9 -99.99 -9.99
2019/12/10 06:00 EST    4.77   4.96    3  219    4  63.0  64.4 1019.6  8.6  1.006 -99.9 -99.99 -9.99
2019/12/10 06:06 EST    4.82   5.00    3  214    5  62.8  64.4 1019.6  8.6  1.006 -99.9 -99.99 -9.99
2019/12/10 06:12 EST    4.86   5.02    4  205    5  62.6  64.4 1019.6  8.7  1.006 -99.9 -99.99 -9.99
2019/12/10 06:18 EST    4.90   5.04    4  201    5  62.6  64.4 1019.7  8.7  1.006 -99.9 -99.99 -9.99
2019/12/10 06:24 EST    4.93   5.09    3  217    5  62.6  64.4 1019.7  8.7  1.006 -99.9 -99.99 -9.99
2019/12/10 06:30 EST    4.96   5.14    4  215    6  62.6  64.4 1019.6  8.8  1.006 -99.9 -99.99 -9.99
2019/12/10 06:36 EST    4.99   5.15    4  211    6  62.4  64.4 1019.7  8.8  1.006 -99.9 -99.99 -9.99
2019/12/10 06:42 EST    5.01   5.14    4  222    5  62.2  64.4 1019.7  8.8  1.006 -99.9 -99.99 -9.99
2019/12/10 06:48 EST    5.02   5.14    4  223    5  62.2  64.4 1019.7  8.8  1.006 -99.9 -99.99 -9.99
2019/12/10 06:54 EST    5.03   5.17    4  231    4  62.4  64.4 1019.8  8.8  1.006 -99.9 -99.99 -9.99
2019/12/10 07:00 EST    5.04   5.19    3  230    4  62.6  64.4 1019.8  8.8  1.006 -99.9 -99.99 -9.99
2019/12/10 07:06 EST    5.04   5.18    3  218    4  62.4  64.4 1019.9  8.8  1.006 -99.9 -99.99 -9.99
2019/12/10 07:12 EST    5.03   5.15    4  210    5  62.6  64.4 1020.0  8.8  1.006 -99.9 -99.99 -9.99
2019/12/10 07:18 EST    5.02   5.18    4  198    5  62.2  64.4 1020.1  8.9  1.006 -99.9 -99.99 -9.99
2019/12/10 07:24 EST    5.00   5.13    4  195    5  62.1  64.4 1020.2  8.9  1.006 -99.9 -99.99 -9.99
2019/12/10 07:30 EST    4.98   5.10    4  199    5  62.1  64.4 1020.2  8.9  1.006 -99.9 -99.99 -9.99
2019/12/10 07:36 EST    4.96   5.06    4  195    4  62.1  64.4 1020.2  8.9  1.006 -99.9 -99.99 -9.99
2019/12/10 07:42 EST    4.92   5.03    3  192    4  62.2  64.4 1020.2  8.9  1.006 -99.9 -99.99 -9.99
2019/12/10 07:48 EST    4.88   5.02    3  187    4  62.6  64.4 1020.2  8.9  1.006 -99.9 -99.99 -9.99
2019/12/10 07:54 EST    4.84   4.98    2  196    4  63.0  64.4 1020.1  8.9  1.006 -99.9 -99.99 -9.99
2019/12/10 08:00 EST    4.79   4.94    3  204    3  63.3  64.4 1020.2  8.9  1.006 -99.9 -99.99 -9.99
2019/12/10 08:06 EST    4.73   4.87    3  207    5  63.9  64.4 1020.2  8.9  1.006 -99.9 -99.99 -9.99
2019/12/10 08:12 EST    4.66   4.80    3  211    4  64.2  64.4 1020.2  8.9  1.006 -99.9 -99.99 -9.99
2019/12/10 08:18 EST    4.60   4.73    3  223    4  64.4  64.4 1020.2  8.9  1.006 -99.9 -99.99 -9.99
2019/12/10 08:24 EST    4.52   4.65    4  225    4  64.4  64.4 1020.2  9.0  1.006 -99.9 -99.99 -9.99
2019/12/10 08:30 EST    4.44   4.53    3  217    4  64.6  64.4 1020.2  8.9  1.006 -99.9 -99.99 -9.99
2019/12/10 08:36 EST    4.35   4.41    3  226    4  64.9  64.4 1020.3  8.9  1.006 -99.9 -99.99 -9.99
2019/12/10 08:42 EST    4.26   4.30    3  224    3  65.1  64.4 1020.3  8.9  1.006 -99.9 -99.99 -9.99
2019/12/10 08:48 EST    4.16   4.22    3  226    4  65.8  64.4 1020.3  9.0  1.006 -99.9 -99.99 -9.99
2019/12/10 08:54 EST    4.06   4.12    2  205    4  66.4  64.4 1020.4  8.9  1.006 -99.9 -99.99 -9.99
2019/12/10 09:00 EST    3.95   3.98    4  188    6  67.6  64.4 1020.4  9.0  1.006 -99.9 -99.99 -9.99
2019/12/10 09:06 EST    3.84   3.84    3  178    4  68.5  64.4 1020.5  9.0  1.006 -99.9 -99.99 -9.99
2019/12/10 09:12 EST    3.72   3.72    4  188    7  68.7  64.4 1020.6  9.0  1.006 -99.9 -99.99 -9.99
2019/12/10 09:18 EST    3.60   3.60    5  202    7  68.7  64.4 1020.6  9.0  1.006 -99.9 -99.99 -9.99
2019/12/10 09:24 EST    3.48   3.43    4  190    7  69.3  64.4 1020.6  8.9  1.006 -99.9 -99.99 -9.99
2019/12/10 09:30 EST    3.35   3.25    6  195    7  69.4  64.4 1020.7  8.9  1.006 -99.9 -99.99 -9.99
2019/12/10 09:36 EST    3.23   3.12    4  202    7  70.2  64.4 1020.8  8.9  1.006 -99.9 -99.99 -9.99
2019/12/10 09:42 EST    3.10   2.99    4  208    7  70.3  64.4 1020.8  8.9  1.006 -99.9 -99.99 -9.99
2019/12/10 09:48 EST    2.97   2.84    4  223    5  70.3  64.4 1020.8  8.9  1.006 -99.9 -99.99 -9.99
2019/12/10 09:54 EST    2.84   2.70    6  220    9  71.4  64.4 1020.8  8.9  1.006 -99.9 -99.99 -9.99
2019/12/10 10:00 EST    2.71   2.56    4  220    8  72.1  64.6 1020.8  8.9  1.006 -99.9 -99.99 -9.99
2019/12/10 10:06 EST    2.58   2.41    3  221    9  73.2  64.6 1020.7  8.9  1.006 -99.9 -99.99 -9.99
2019/12/10 10:12 EST    2.46   2.27    7  221   10  73.6  64.6 1020.7  8.9  1.006 -99.9 -99.99 -9.99
2019/12/10 10:18 EST    2.33   2.16    6  229    9  73.8  64.6 1020.7  8.9  1.006 -99.9 -99.99 -9.99
2019/12/10 10:24 EST    2.21   2.04    6  219    9  74.3  64.4 1020.7  8.8  1.006 -99.9 -99.99 -9.99
2019/12/10 10:30 EST    2.08   1.94    6  235    9  74.3  64.4 1020.5  8.8  1.006 -99.9 -99.99 -9.99
2019/12/10 10:36 EST    1.97   1.85    6  230    8  74.7  64.4 1020.6  8.7  1.006 -99.9 -99.99 -9.99
2019/12/10 10:42 EST    1.85   1.76    7  220   10  74.7  64.4 1020.6  8.7  1.006 -99.9 -99.99 -9.99
2019/12/10 10:48 EST    1.74   1.63    8  190   11  76.3  64.4 1020.5  8.7  1.006 -99.9 -99.99 -9.99
2019/12/10 10:54 EST    1.63   1.53    7  216   10  76.1  64.4 1020.5  8.6  1.006 -99.9 -99.99 -9.99
2019/12/10 11:00 EST    1.52   1.42    9  207   11  76.3  64.6 1020.3  8.6  1.006 -99.9 -99.99 -9.99
2019/12/10 11:06 EST    1.42   1.33    8  204   13  76.6  64.6 1020.3  8.6  1.006 -99.9 -99.99 -9.99
2019/12/10 11:12 EST    1.33   1.23    8  203   13  76.8  64.4 1020.1  8.6  1.006 -99.9 -99.99 -9.99
2019/12/10 11:18 EST    1.23   1.12    7  203   13  77.0  64.4 1020.1  8.6  1.006 -99.9 -99.99 -9.99
2019/12/10 11:24 EST    1.15   1.03    9  200   13  77.4  64.4 1019.9  8.6  1.006 -99.9 -99.99 -9.99
2019/12/10 11:30 EST    1.06   0.95    8  204   13  77.7  64.4 1019.8  8.5  1.006 -99.9 -99.99 -9.99
2019/12/10 11:36 EST    0.98   0.89   10  225   13  77.0  64.6 1019.7  8.5  1.006 -99.9 -99.99 -9.99
2019/12/10 11:42 EST    0.91   0.84    7  207   13  78.4  64.6 1019.6  8.5  1.006 -99.9 -99.99 -9.99
2019/12/10 11:48 EST    0.84   0.76   11  200   15  78.3  64.6 1019.5  8.5  1.006 -99.9 -99.99 -9.99
2019/12/10 11:54 EST    0.77   0.69   11  208   17  78.3  64.6 1019.4  8.5  1.006 -99.9 -99.99 -9.99
2019/12/10 12:00 EST    0.71   0.64   11  215   14  78.1  64.6 1019.3  8.5  1.006 -99.9 -99.99 -9.99
2019/12/10 12:06 EST    0.65   0.60   10  215   16  78.4  64.6 1019.2  8.5  1.006 -99.9 -99.99 -9.99
2019/12/10 12:12 EST    0.60   0.55   11  205   15  78.6  64.6 1019.1  8.5  1.006 -99.9 -99.99 -9.99
2019/12/10 12:18 EST    0.56   0.53    7  206   15  79.3  64.6 1019.0  8.5  1.006 -99.9 -99.99 -9.99
2019/12/10 12:24 EST    0.52   0.53    9  222   13  79.2  64.6 1018.8  8.4  1.006 -99.9 -99.99 -9.99
2019/12/10 12:30 EST    0.48   0.50   11  226   14  78.4  64.6 1018.8  8.4  1.006 -99.9 -99.99 -9.99
2019/12/10 12:36 EST    0.45   0.45   10  223   15  78.8  64.6 1018.7  8.4  1.006 -99.9 -99.99 -9.99
2019/12/10 12:42 EST    0.42   0.41   10  225   13  78.3  64.8 1018.7  8.4  1.006 -99.9 -99.99 -9.99
2019/12/10 12:48 EST    0.40   0.37   10  220   13  79.0  64.8 1018.6  8.3  1.006 -99.9 -99.99 -9.99
2019/12/10 12:54 EST    0.39   0.37    9  216   13  79.3  64.8 1018.5  8.3  1.006 -99.9 -99.99 -9.99
2019/12/10 13:00 EST    0.38   0.36   13  236   15  78.3  64.8 1018.4  8.3  1.006 -99.9 -99.99 -9.99
2019/12/10 13:06 EST    0.38   0.34   10  227   14  77.9  64.8 1018.4  8.2  1.006 -99.9 -99.99 -9.99
2019/12/10 13:12 EST    0.38   0.33   11  218   14  79.3  64.8 1018.3  8.2  1.006 -99.9 -99.99 -9.99
2019/12/10 13:18 EST    0.39   0.34    9  218   14  79.9  64.8 1018.3  8.2  1.006 -99.9 -99.99 -9.99
2019/12/10 13:24 EST    0.40   0.34    9  219   12  80.1  64.8 1018.3  8.2  1.006 -99.9 -99.99 -9.99
2019/12/10 13:30 EST    0.42   0.37    8  226   12  80.1  64.8 1018.2  8.2  1.006 -99.9 -99.99 -9.99
2019/12/10 13:36 EST    0.45   0.38    6  227   11  79.2  64.8 1018.1  8.2  1.006 -99.9 -99.99 -9.99
2019/12/10 13:42 EST    0.48   0.38    9  240   10  79.3  64.8 1018.0  8.1  1.006 -99.9 -99.99 -9.99
2019/12/10 13:48 EST    0.52   0.42    8  227   10  79.7  64.8 1018.0  8.1  1.006 -99.9 -99.99 -9.99
2019/12/10 13:54 EST    0.56   0.47    8  223   13  80.2  64.8 1018.0  8.1  1.006 -99.9 -99.99 -9.99
2019/12/10 14:00 EST    0.61   0.53    6  219   13  80.6  64.8 1018.0  8.1  1.006 -99.9 -99.99 -9.99
2019/12/10 14:06 EST    0.67   0.56    8  220   13  80.2  64.8 1017.9  8.1  1.006 -99.9 -99.99 -9.99
2019/12/10 14:12 EST    0.73   0.60    9  212   13  80.8  64.8 1017.9  8.1  1.006 -99.9 -99.99 -9.99
2019/12/10 14:18 EST    0.79   0.68    8  201   12  81.0  64.9 1017.8  8.0  1.006 -99.9 -99.99 -9.99
2019/12/10 14:24 EST    0.86   0.76    7  206   13  80.4  64.9 1017.7  8.1  1.006 -99.9 -99.99 -9.99
2019/12/10 14:30 EST    0.93   0.84    6  225    9  80.4  64.9 1017.7  8.0  1.006 -99.9 -99.99 -9.99
2019/12/10 14:36 EST    1.01   0.89    9  221   12  80.2  64.9 1017.6  8.0  1.006 -99.9 -99.99 -9.99
2019/12/10 14:42 EST    1.09   0.95    8  206   11  81.3  64.9 1017.6  8.0  1.006 -99.9 -99.99 -9.99
2019/12/10 14:48 EST    1.17   1.04    9  219   12  80.6  64.9 1017.6  8.0  1.006 -99.9 -99.99 -9.99
2019/12/10 14:54 EST    1.26   1.13    4  137   11  78.4  64.9 1017.7  7.9  1.005 -99.9 -99.99 -9.99
2019/12/10 15:00 EST    1.35   1.21    4  157   10  77.0  64.9 1017.6  7.9  1.005 -99.9 -99.99 -9.99
2019/12/10 15:06 EST    1.44   1.28    5  162    8  77.2  64.9 1017.5  7.9  1.005 -99.9 -99.99 -9.99
2019/12/10 15:12 EST    1.53   1.34    6  143    9  77.5  64.9 1017.4  7.9  1.005 -99.9 -99.99 -9.99
2019/12/10 15:18 EST    1.62   1.44    7  144    9  77.4  64.9 1017.4  7.8  1.005 -99.9 -99.99 -9.99
2019/12/10 15:24 EST    1.72   1.57    5  125    8  78.3  64.9 1017.4  7.9  1.005 -99.9 -99.99 -9.99
2019/12/10 15:30 EST    1.81   1.66    6  154    9  77.7  64.9 1017.4  7.8  1.005 -99.9 -99.99 -9.99
2019/12/10 15:36 EST    1.91   1.76    7  140   10  76.5  65.1 1017.4  7.9  1.005 -99.9 -99.99 -9.99
2019/12/10 15:42 EST    2.01   1.88    7  138   11  75.7  65.1 1017.3  7.8  1.005 -99.9 -99.99 -9.99
2019/12/10 15:48 EST    2.10   1.98    5  147   10  76.1  65.1 1017.4  7.8  1.005 -99.9 -99.99 -9.99
2019/12/10 15:54 EST    2.20   2.10    8  139   11  75.4  65.1 1017.4  7.7  1.005 -99.9 -99.99 -9.99
2019/12/10 16:00 EST    2.30   2.21    8  147   12  75.2  65.1 1017.4  7.8  1.005 -99.9 -99.99 -9.99
2019/12/10 16:06 EST    2.39   2.28    7  155   11  75.2  65.1 1017.4  7.7  1.005 -99.9 -99.99 -9.99
2019/12/10 16:12 EST    2.49   2.40    9  147   13  75.0  65.1 1017.4  7.7  1.005 -99.9 -99.99 -9.99
2019/12/10 16:18 EST    2.58   2.56    6  151   10  75.2  65.1 1017.4  7.7  1.005 -99.9 -99.99 -9.99
2019/12/10 16:24 EST    2.68   2.66    5  151    9  75.2  65.1 1017.4  7.7  1.005 -99.9 -99.99 -9.99
2019/12/10 16:30 EST    2.77   2.77    7  149   11  74.8  65.1 1017.4  7.7  1.005 -99.9 -99.99 -9.99
2019/12/10 16:36 EST    2.86   2.77    7  151   11  74.7  65.1 1017.4  7.7  1.005 -99.9 -99.99 -9.99
2019/12/10 16:42 EST    2.95   2.94    4  156   10  74.7  64.9 1017.4  7.6  1.005 -99.9 -99.99 -9.99
2019/12/10 16:48 EST    3.04   3.04    6  149    9  74.3  65.1 1017.5  7.7  1.005 -99.9 -99.99 -9.99
2019/12/10 16:54 EST    3.12   3.12    5  156    9  73.9  65.1 1017.5  7.6  1.005 -99.9 -99.99 -9.99
2019/12/10 17:00 EST    3.21   3.21    5  161    8  73.8  65.1 1017.5  7.6  1.005 -99.9 -99.99 -9.99
2019/12/10 17:06 EST    3.29 -99.99 -999 -999 -999 -99.9 -99.9 -999.9 -9.9 -9.999 -99.9 -99.99 -9.99
2019/12/10 17:12 EST    3.37 -99.99 -999 -999 -999 -99.9 -99.9 -999.9 -9.9 -9.999 -99.9 -99.99 -9.99
2019/12/10 17:18 EST    3.45 -99.99 -999 -999 -999 -99.9 -99.9 -999.9 -9.9 -9.999 -99.9 -99.99 -9.99
2019/12/10 17:24 EST    3.53 -99.99 -999 -999 -999 -99.9 -99.9 -999.9 -9.9 -9.999 -99.9 -99.99 -9.99
2019/12/10 17:30 EST    3.60 -99.99 -999 -999 -999 -99.9 -99.9 -999.9 -9.9 -9.999 -99.9 -99.99 -9.99
2019/12/10 17:36 EST    3.67 -99.99 -999 -999 -999 -99.9 -99.9 -999.9 -9.9 -9.999 -99.9 -99.99 -9.99
2019/12/10 17:42 EST    3.74 -99.99 -999 -999 -999 -99.9 -99.9 -999.9 -9.9 -9.999 -99.9 -99.99 -9.99
2019/12/10 17:48 EST    3.81 -99.99 -999 -999 -999 -99.9 -99.9 -999.9 -9.9 -9.999 -99.9 -99.99 -9.99
2019/12/10 17:54 EST    3.87 -99.99 -999 -999 -999 -99.9 -99.9 -999.9 -9.9 -9.999 -99.9 -99.99 -9.99
2019/12/10 18:00 EST    3.93 -99.99 -999 -999 -999 -99.9 -99.9 -999.9 -9.9 -9.999 -99.9 -99.99 -9.99
2019/12/10 18:06 EST    3.98 -99.99 -999 -999 -999 -99.9 -99.9 -999.9 -9.9 -9.999 -99.9 -99.99 -9.99
2019/12/10 18:12 EST    4.04 -99.99 -999 -999 -999 -99.9 -99.9 -999.9 -9.9 -9.999 -99.9 -99.99 -9.99
2019/12/10 18:18 EST    4.08 -99.99 -999 -999 -999 -99.9 -99.9 -999.9 -9.9 -9.999 -99.9 -99.99 -9.99
2019/12/10 18:24 EST    4.13 -99.99 -999 -999 -999 -99.9 -99.9 -999.9 -9.9 -9.999 -99.9 -99.99 -9.99
2019/12/10 18:30 EST    4.17 -99.99 -999 -999 -999 -99.9 -99.9 -999.9 -9.9 -9.999 -99.9 -99.99 -9.99
2019/12/10 18:36 EST    4.21 -99.99 -999 -999 -999 -99.9 -99.9 -999.9 -9.9 -9.999 -99.9 -99.99 -9.99
2019/12/10 18:42 EST    4.24 -99.99 -999 -999 -999 -99.9 -99.9 -999.9 -9.9 -9.999 -99.9 -99.99 -9.99
2019/12/10 18:48 EST    4.27 -99.99 -999 -999 -999 -99.9 -99.9 -999.9 -9.9 -9.999 -99.9 -99.99 -9.99
2019/12/10 18:54 EST    4.29 -99.99 -999 -999 -999 -99.9 -99.9 -999.9 -9.9 -9.999 -99.9 -99.99 -9.99
2019/12/10 19:00 EST    4.31 -99.99 -999 -999 -999 -99.9 -99.9 -999.9 -9.9 -9.999 -99.9 -99.99 -9.99
2019/12/10 19:06 EST    4.33 -99.99 -999 -999 -999 -99.9 -99.9 -999.9 -9.9 -9.999 -99.9 -99.99 -9.99
2019/12/10 19:12 EST    4.34 -99.99 -999 -999 -999 -99.9 -99.9 -999.9 -9.9 -9.999 -99.9 -99.99 -9.99
2019/12/10 19:18 EST    4.34 -99.99 -999 -999 -999 -99.9 -99.9 -999.9 -9.9 -9.999 -99.9 -99.99 -9.99
2019/12/10 19:24 EST    4.34 -99.99 -999 -999 -999 -99.9 -99.9 -999.9 -9.9 -9.999 -99.9 -99.99 -9.99
2019/12/10 19:30 EST    4.34 -99.99 -999 -999 -999 -99.9 -99.9 -999.9 -9.9 -9.999 -99.9 -99.99 -9.99
2019/12/10 19:36 EST    4.33 -99.99 -999 -999 -999 -99.9 -99.9 -999.9 -9.9 -9.999 -99.9 -99.99 -9.99
2019/12/10 19:42 EST    4.31 -99.99 -999 -999 -999 -99.9 -99.9 -999.9 -9.9 -9.999 -99.9 -99.99 -9.99
2019/12/10 19:48 EST    4.29 -99.99 -999 -999 -999 -99.9 -99.9 -999.9 -9.9 -9.999 -99.9 -99.99 -9.99
2019/12/10 19:54 EST    4.27 -99.99 -999 -999 -999 -99.9 -99.9 -999.9 -9.9 -9.999 -99.9 -99.99 -9.99
2019/12/10 20:00 EST    4.23 -99.99 -999 -999 -999 -99.9 -99.9 -999.9 -9.9 -9.999 -99.9 -99.99 -9.99
2019/12/10 20:06 EST    4.19 -99.99 -999 -999 -999 -99.9 -99.9 -999.9 -9.9 -9.999 -99.9 -99.99 -9.99
2019/12/10 20:12 EST    4.15 -99.99 -999 -999 -999 -99.9 -99.9 -999.9 -9.9 -9.999 -99.9 -99.99 -9.99
2019/12/10 20:18 EST    4.10 -99.99 -999 -999 -999 -99.9 -99.9 -999.9 -9.9 -9.999 -99.9 -99.99 -9.99
2019/12/10 20:24 EST    4.04 -99.99 -999 -999 -999 -99.9 -99.9 -999.9 -9.9 -9.999 -99.9 -99.99 -9.99
2019/12/10 20:30 EST    3.98 -99.99 -999 -999 -999 -99.9 -99.9 -999.9 -9.9 -9.999 -99.9 -99.99 -9.99
2019/12/10 20:36 EST    3.91 -99.99 -999 -999 -999 -99.9 -99.9 -999.9 -9.9 -9.999 -99.9 -99.99 -9.99
2019/12/10 20:42 EST    3.84 -99.99 -999 -999 -999 -99.9 -99.9 -999.9 -9.9 -9.999 -99.9 -99.99 -9.99
2019/12/10 20:48 EST    3.76 -99.99 -999 -999 -999 -99.9 -99.9 -999.9 -9.9 -9.999 -99.9 -99.99 -9.99
2019/12/10 20:54 EST    3.67 -99.99 -999 -999 -999 -99.9 -99.9 -999.9 -9.9 -9.999 -99.9 -99.99 -9.99
2019/12/10 21:00 EST    3.58 -99.99 -999 -999 -999 -99.9 -99.9 -999.9 -9.9 -9.999 -99.9 -99.99 -9.99
2019/12/10 21:06 EST    3.48 -99.99 -999 -999 -999 -99.9 -99.9 -999.9 -9.9 -9.999 -99.9 -99.99 -9.99
2019/12/10 21:12 EST    3.38 -99.99 -999 -999 -999 -99.9 -99.9 -999.9 -9.9 -9.999 -99.9 -99.99 -9.99
2019/12/10 21:18 EST    3.27 -99.99 -999 -999 -999 -99.9 -99.9 -999.9 -9.9 -9.999 -99.9 -99.99 -9.99
2019/12/10 21:24 EST    3.16 -99.99 -999 -999 -999 -99.9 -99.9 -999.9 -9.9 -9.999 -99.9 -99.99 -9.99
2019/12/10 21:30 EST    3.04 -99.99 -999 -999 -999 -99.9 -99.9 -999.9 -9.9 -9.999 -99.9 -99.99 -9.99
2019/12/10 21:36 EST    2.93 -99.99 -999 -999 -999 -99.9 -99.9 -999.9 -9.9 -9.999 -99.9 -99.99 -9.99
2019/12/10 21:42 EST    2.80 -99.99 -999 -999 -999 -99.9 -99.9 -999.9 -9.9 -9.999 -99.9 -99.99 -9.99
2019/12/10 21:48 EST    2.68 -99.99 -999 -999 -999 -99.9 -99.9 -999.9 -9.9 -9.999 -99.9 -99.99 -9.99
2019/12/10 21:54 EST    2.55 -99.99 -999 -999 -999 -99.9 -99.9 -999.9 -9.9 -9.999 -99.9 -99.99 -9.99
2019/12/10 22:00 EST    2.42 -99.99 -999 -999 -999 -99.9 -99.9 -999.9 -9.9 -9.999 -99.9 -99.99 -9.99
2019/12/10 22:06 EST    2.29 -99.99 -999 -999 -999 -99.9 -99.9 -999.9 -9.9 -9.999 -99.9 -99.99 -9.99
2019/12/10 22:12 EST    2.16 -99.99 -999 -999 -999 -99.9 -99.9 -999.9 -9.9 -9.999 -99.9 -99.99 -9.99
2019/12/10 22:18 EST    2.03 -99.99 -999 -999 -999 -99.9 -99.9 -999.9 -9.9 -9.999 -99.9 -99.99 -9.99
2019/12/10 22:24 EST    1.90 -99.99 -999 -999 -999 -99.9 -99.9 -999.9 -9.9 -9.999 -99.9 -99.99 -9.99
2019/12/10 22:30 EST    1.77 -99.99 -999 -999 -999 -99.9 -99.9 -999.9 -9.9 -9.999 -99.9 -99.99 -9.99
2019/12/10 22:36 EST    1.65 -99.99 -999 -999 -999 -99.9 -99.9 -999.9 -9.9 -9.999 -99.9 -99.99 -9.99
2019/12/10 22:42 EST    1.52 -99.99 -999 -999 -999 -99.9 -99.9 -999.9 -9.9 -9.999 -99.9 -99.99 -9.99
2019/12/10 22:48 EST    1.40 -99.99 -999 -999 -999 -99.9 -99.9 -999.9 -9.9 -9.999 -99.9 -99.99 -9.99
2019/12/10 22:54 EST    1.29 -99.99 -999 -999 -999 -99.9 -99.9 -999.9 -9.9 -9.999 -99.9 -99.99 -9.99
2019/12/10 23:00 EST    1.17 -99.99 -999 -999 -999 -99.9 -99.9 -999.9 -9.9 -9.999 -99.9 -99.99 -9.99
2019/12/10 23:06 EST    1.06 -99.99 -999 -999 -999 -99.9 -99.9 -999.9 -9.9 -9.999 -99.9 -99.99 -9.99
2019/12/10 23:12 EST    0.96 -99.99 -999 -999 -999 -99.9 -99.9 -999.9 -9.9 -9.999 -99.9 -99.99 -9.99